sensor_id;sensor_type;location;lat;lon;timestamp;P1;durP1;ratioP1;P2;durP2;ratioP2
46266;SDS011;31998;48.798;15.066;2022-09-03T00:04:39;0.80;;;0.80;;
46266;SDS011;31998;48.798;15.066;2022-09-03T00:07:34;0.77;;;0.77;;
46266;SDS011;31998;48.798;15.066;2022-09-03T00:10:11;1.00;;;1.00;;
46266;SDS011;31998;48.798;15.066;2022-09-03T00:12:43;1.07;;;1.07;;
46266;SDS011;31998;48.798;15.066;2022-09-03T00:15:12;1.07;;;1.07;;
46266;SDS011;31998;48.798;15.066;2022-09-03T00:17:46;1.17;;;1.07;;
46266;SDS011;31998;48.798;15.066;2022-09-03T00:20:17;1.00;;;1.00;;
46266;SDS011;31998;48.798;15.066;2022-09-03T00:22:50;1.70;;;1.60;;
46266;SDS011;31998;48.798;15.066;2022-09-03T00:25:28;2.07;;;0.80;;
46266;SDS011;31998;48.798;15.066;2022-09-03T00:28:01;1.30;;;1.17;;
46266;SDS011;31998;48.798;15.066;2022-09-03T00:30:31;1.30;;;1.30;;
46266;SDS011;31998;48.798;15.066;2022-09-03T00:33:06;1.30;;;1.30;;
46266;SDS011;31998;48.798;15.066;2022-09-03T00:38:26;1.73;;;1.10;;
46266;SDS011;31998;48.798;15.066;2022-09-03T00:55:26;1.00;;;1.00;;
46266;SDS011;31998;48.798;15.066;2022-09-03T00:58:06;0.90;;;0.90;;
46266;SDS011;31998;48.798;15.066;2022-09-03T01:00:37;1.40;;;1.30;;
46266;SDS011;31998;48.798;15.066;2022-09-03T01:13:55;1.47;;;1.33;;
46266;SDS011;31998;48.798;15.066;2022-09-03T01:16:50;1.50;;;1.40;;
46266;SDS011;31998;48.798;15.066;2022-09-03T01:30:11;5.13;;;1.00;;
46266;SDS011;31998;48.798;15.066;2022-09-03T01:35:26;1.10;;;1.10;;
46266;SDS011;31998;48.798;15.066;2022-09-03T01:38:12;1.63;;;1.30;;
46266;SDS011;31998;48.798;15.066;2022-09-03T01:44:02;1.17;;;1.07;;
46266;SDS011;31998;48.798;15.066;2022-09-03T01:46:59;3.63;;;1.00;;
46266;SDS011;31998;48.798;15.066;2022-09-03T01:49:36;2.70;;;1.40;;
46266;SDS011;31998;48.798;15.066;2022-09-03T01:54:43;1.13;;;1.13;;
46266;SDS011;31998;48.798;15.066;2022-09-03T01:59:48;1.33;;;1.33;;
46266;SDS011;31998;48.798;15.066;2022-09-03T02:02:23;1.00;;;1.00;;
46266;SDS011;31998;48.798;15.066;2022-09-03T02:05:04;1.00;;;1.00;;
46266;SDS011;31998;48.798;15.066;2022-09-03T02:07:36;2.20;;;1.60;;
46266;SDS011;31998;48.798;15.066;2022-09-03T02:10:08;1.40;;;1.10;;
46266;SDS011;31998;48.798;15.066;2022-09-03T02:12:37;3.17;;;1.33;;
46266;SDS011;31998;48.798;15.066;2022-09-03T02:15:09;1.20;;;1.20;;
46266;SDS011;31998;48.798;15.066;2022-09-03T02:17:37;4.40;;;1.77;;
46266;SDS011;31998;48.798;15.066;2022-09-03T02:20:07;1.80;;;1.30;;
46266;SDS011;31998;48.798;15.066;2022-09-03T02:22:36;128.00;;;5.70;;
46266;SDS011;31998;48.798;15.066;2022-09-03T02:25:03;1.70;;;1.07;;
46266;SDS011;31998;48.798;15.066;2022-09-03T02:27:29;2.03;;;1.83;;
46266;SDS011;31998;48.798;15.066;2022-09-03T02:29:55;13.13;;;1.63;;
46266;SDS011;31998;48.798;15.066;2022-09-03T02:32:22;6.63;;;1.17;;
46266;SDS011;31998;48.798;15.066;2022-09-03T02:34:48;1.80;;;1.27;;
46266;SDS011;31998;48.798;15.066;2022-09-03T02:37:13;4.20;;;1.30;;
46266;SDS011;31998;48.798;15.066;2022-09-03T02:39:40;2.77;;;1.30;;
46266;SDS011;31998;48.798;15.066;2022-09-03T02:42:06;1.57;;;1.57;;
46266;SDS011;31998;48.798;15.066;2022-09-03T02:44:35;1.43;;;1.43;;
46266;SDS011;31998;48.798;15.066;2022-09-03T02:47:04;3.77;;;1.47;;
46266;SDS011;31998;48.798;15.066;2022-09-03T02:49:31;2.57;;;1.40;;
46266;SDS011;31998;48.798;15.066;2022-09-03T02:52:07;2.00;;;0.90;;
46266;SDS011;31998;48.798;15.066;2022-09-03T02:54:37;4.87;;;1.20;;
46266;SDS011;31998;48.798;15.066;2022-09-03T02:57:06;0.70;;;0.70;;
46266;SDS011;31998;48.798;15.066;2022-09-03T02:59:33;1.53;;;0.80;;
46266;SDS011;31998;48.798;15.066;2022-09-03T03:01:59;50.27;;;3.33;;
46266;SDS011;31998;48.798;15.066;2022-09-03T03:04:25;1.10;;;1.10;;
46266;SDS011;31998;48.798;15.066;2022-09-03T03:06:50;0.70;;;0.70;;
46266;SDS011;31998;48.798;15.066;2022-09-03T03:09:16;1.00;;;1.00;;
46266;SDS011;31998;48.798;15.066;2022-09-03T03:11:42;65.97;;;3.30;;
46266;SDS011;31998;48.798;15.066;2022-09-03T03:14:07;32.90;;;2.33;;
46266;SDS011;31998;48.798;15.066;2022-09-03T03:16:33;1.00;;;1.00;;
46266;SDS011;31998;48.798;15.066;2022-09-03T03:18:59;2.10;;;0.90;;
46266;SDS011;31998;48.798;15.066;2022-09-03T03:21:24;5.93;;;0.77;;
46266;SDS011;31998;48.798;15.066;2022-09-03T03:23:50;13.97;;;1.57;;
46266;SDS011;31998;48.798;15.066;2022-09-03T03:26:16;0.70;;;0.70;;
46266;SDS011;31998;48.798;15.066;2022-09-03T03:28:44;1.67;;;1.00;;
46266;SDS011;31998;48.798;15.066;2022-09-03T03:31:18;2.60;;;1.07;;
46266;SDS011;31998;48.798;15.066;2022-09-03T03:33:49;1.13;;;1.13;;
46266;SDS011;31998;48.798;15.066;2022-09-03T03:36:19;1.40;;;1.40;;
46266;SDS011;31998;48.798;15.066;2022-09-03T03:38:46;1.30;;;1.30;;
46266;SDS011;31998;48.798;15.066;2022-09-03T03:41:16;2.73;;;1.07;;
46266;SDS011;31998;48.798;15.066;2022-09-03T03:43:43;1.90;;;1.60;;
46266;SDS011;31998;48.798;15.066;2022-09-03T03:46:09;2.37;;;2.17;;
46266;SDS011;31998;48.798;15.066;2022-09-03T03:48:35;1.27;;;1.27;;
46266;SDS011;31998;48.798;15.066;2022-09-03T03:51:02;3.90;;;1.20;;
46266;SDS011;31998;48.798;15.066;2022-09-03T03:53:31;1.17;;;1.07;;
46266;SDS011;31998;48.798;15.066;2022-09-03T03:55:59;123.83;;;4.87;;
46266;SDS011;31998;48.798;15.066;2022-09-03T03:58:27;3.80;;;1.03;;
46266;SDS011;31998;48.798;15.066;2022-09-03T04:00:54;0.90;;;0.80;;
46266;SDS011;31998;48.798;15.066;2022-09-03T04:03:19;8.30;;;1.30;;
46266;SDS011;31998;48.798;15.066;2022-09-03T04:05:57;36.03;;;2.77;;
46266;SDS011;31998;48.798;15.066;2022-09-03T04:08:25;1.07;;;1.07;;
46266;SDS011;31998;48.798;15.066;2022-09-03T04:10:50;1.10;;;1.10;;
46266;SDS011;31998;48.798;15.066;2022-09-03T04:13:16;2.00;;;0.83;;
46266;SDS011;31998;48.798;15.066;2022-09-03T04:15:41;20.93;;;1.93;;
46266;SDS011;31998;48.798;15.066;2022-09-03T04:18:07;9.40;;;1.30;;
46266;SDS011;31998;48.798;15.066;2022-09-03T04:20:34;1.03;;;1.03;;
46266;SDS011;31998;48.798;15.066;2022-09-03T04:23:01;1.50;;;1.40;;
46266;SDS011;31998;48.798;15.066;2022-09-03T04:25:26;1.70;;;1.60;;
46266;SDS011;31998;48.798;15.066;2022-09-03T04:27:52;1.70;;;1.60;;
46266;SDS011;31998;48.798;15.066;2022-09-03T04:30:18;1.07;;;1.07;;
46266;SDS011;31998;48.798;15.066;2022-09-03T04:32:44;1.40;;;1.40;;
46266;SDS011;31998;48.798;15.066;2022-09-03T04:35:22;1.03;;;1.03;;
46266;SDS011;31998;48.798;15.066;2022-09-03T04:37:49;1.00;;;1.00;;
46266;SDS011;31998;48.798;15.066;2022-09-03T04:40:15;1.50;;;1.40;;
46266;SDS011;31998;48.798;15.066;2022-09-03T04:42:40;1.73;;;1.63;;
46266;SDS011;31998;48.798;15.066;2022-09-03T04:45:06;1.30;;;1.20;;
46266;SDS011;31998;48.798;15.066;2022-09-03T04:47:32;0.83;;;0.83;;
46266;SDS011;31998;48.798;15.066;2022-09-03T04:49:58;1.20;;;1.20;;
46266;SDS011;31998;48.798;15.066;2022-09-03T04:52:23;0.63;;;0.63;;
46266;SDS011;31998;48.798;15.066;2022-09-03T04:54:49;1.53;;;1.43;;
46266;SDS011;31998;48.798;15.066;2022-09-03T04:57:14;1.30;;;0.83;;
46266;SDS011;31998;48.798;15.066;2022-09-03T04:59:40;3.30;;;1.63;;
46266;SDS011;31998;48.798;15.066;2022-09-03T05:02:06;1.77;;;1.73;;
46266;SDS011;31998;48.798;15.066;2022-09-03T05:04:32;1.43;;;1.43;;
46266;SDS011;31998;48.798;15.066;2022-09-03T05:06:58;3.63;;;2.00;;
46266;SDS011;31998;48.798;15.066;2022-09-03T05:09:23;1.30;;;1.30;;
46266;SDS011;31998;48.798;15.066;2022-09-03T05:11:49;1.60;;;1.50;;
46266;SDS011;31998;48.798;15.066;2022-09-03T05:14:14;1.43;;;1.43;;
46266;SDS011;31998;48.798;15.066;2022-09-03T05:16:39;1.70;;;1.70;;
46266;SDS011;31998;48.798;15.066;2022-09-03T05:19:05;1.60;;;1.60;;
46266;SDS011;31998;48.798;15.066;2022-09-03T05:21:32;6.40;;;2.27;;
46266;SDS011;31998;48.798;15.066;2022-09-03T05:24:00;2.50;;;2.40;;
46266;SDS011;31998;48.798;15.066;2022-09-03T05:26:27;2.80;;;2.70;;
46266;SDS011;31998;48.798;15.066;2022-09-03T05:28:55;6.00;;;2.40;;
46266;SDS011;31998;48.798;15.066;2022-09-03T05:31:24;2.50;;;2.40;;
46266;SDS011;31998;48.798;15.066;2022-09-03T05:33:55;2.77;;;2.67;;
46266;SDS011;31998;48.798;15.066;2022-09-03T05:36:23;2.87;;;2.77;;
46266;SDS011;31998;48.798;15.066;2022-09-03T05:38:50;2.60;;;2.50;;
46266;SDS011;31998;48.798;15.066;2022-09-03T05:41:18;3.03;;;2.93;;
46266;SDS011;31998;48.798;15.066;2022-09-03T05:43:46;5.70;;;3.97;;
46266;SDS011;31998;48.798;15.066;2022-09-03T05:46:15;4.07;;;2.60;;
46266;SDS011;31998;48.798;15.066;2022-09-03T05:48:42;8.47;;;7.50;;
46266;SDS011;31998;48.798;15.066;2022-09-03T05:51:09;7.07;;;6.40;;
46266;SDS011;31998;48.798;15.066;2022-09-03T05:53:40;4.53;;;4.30;;
46266;SDS011;31998;48.798;15.066;2022-09-03T05:56:08;6.10;;;3.60;;
46266;SDS011;31998;48.798;15.066;2022-09-03T05:58:40;3.23;;;3.10;;
46266;SDS011;31998;48.798;15.066;2022-09-03T06:01:18;3.50;;;3.20;;
46266;SDS011;31998;48.798;15.066;2022-09-03T06:03:47;3.83;;;3.70;;
46266;SDS011;31998;48.798;15.066;2022-09-03T06:06:19;2.47;;;2.47;;
46266;SDS011;31998;48.798;15.066;2022-09-03T06:08:49;11.63;;;3.50;;
46266;SDS011;31998;48.798;15.066;2022-09-03T06:11:15;3.17;;;3.07;;
46266;SDS011;31998;48.798;15.066;2022-09-03T06:13:41;3.17;;;2.97;;
46266;SDS011;31998;48.798;15.066;2022-09-03T06:16:06;4.23;;;2.83;;
46266;SDS011;31998;48.798;15.066;2022-09-03T06:18:32;3.47;;;3.07;;
46266;SDS011;31998;48.798;15.066;2022-09-03T06:20:59;2.80;;;2.70;;
46266;SDS011;31998;48.798;15.066;2022-09-03T06:23:27;8.30;;;3.40;;
46266;SDS011;31998;48.798;15.066;2022-09-03T06:26:03;3.50;;;3.30;;
46266;SDS011;31998;48.798;15.066;2022-09-03T06:28:37;4.73;;;3.50;;
46266;SDS011;31998;48.798;15.066;2022-09-03T06:31:05;2.80;;;2.70;;
46266;SDS011;31998;48.798;15.066;2022-09-03T06:33:33;3.37;;;3.10;;
46266;SDS011;31998;48.798;15.066;2022-09-03T06:36:00;2.87;;;2.67;;
46266;SDS011;31998;48.798;15.066;2022-09-03T06:38:30;3.33;;;2.70;;
46266;SDS011;31998;48.798;15.066;2022-09-03T06:40:59;5.73;;;2.83;;
46266;SDS011;31998;48.798;15.066;2022-09-03T06:43:27;2.70;;;2.50;;
46266;SDS011;31998;48.798;15.066;2022-09-03T06:45:57;4.47;;;3.23;;
46266;SDS011;31998;48.798;15.066;2022-09-03T06:48:25;5.00;;;2.20;;
46266;SDS011;31998;48.798;15.066;2022-09-03T06:50:58;3.60;;;2.37;;
46266;SDS011;31998;48.798;15.066;2022-09-03T06:53:26;5.90;;;2.80;;
46266;SDS011;31998;48.798;15.066;2022-09-03T06:55:57;3.00;;;2.83;;
46266;SDS011;31998;48.798;15.066;2022-09-03T06:58:27;2.67;;;2.57;;
46266;SDS011;31998;48.798;15.066;2022-09-03T07:01:29;2.73;;;2.30;;
46266;SDS011;31998;48.798;15.066;2022-09-03T07:03:59;3.30;;;2.23;;
46266;SDS011;31998;48.798;15.066;2022-09-03T07:06:27;2.23;;;2.00;;
46266;SDS011;31998;48.798;15.066;2022-09-03T07:08:54;2.27;;;2.17;;
46266;SDS011;31998;48.798;15.066;2022-09-03T07:11:22;3.90;;;2.57;;
46266;SDS011;31998;48.798;15.066;2022-09-03T07:13:51;2.90;;;2.70;;
46266;SDS011;31998;48.798;15.066;2022-09-03T07:16:25;3.33;;;2.50;;
46266;SDS011;31998;48.798;15.066;2022-09-03T07:18:52;2.27;;;2.10;;
46266;SDS011;31998;48.798;15.066;2022-09-03T07:21:19;2.07;;;2.07;;
46266;SDS011;31998;48.798;15.066;2022-09-03T07:23:49;12.73;;;3.03;;
46266;SDS011;31998;48.798;15.066;2022-09-03T07:26:17;2.90;;;2.70;;
46266;SDS011;31998;48.798;15.066;2022-09-03T07:28:47;3.80;;;3.50;;
46266;SDS011;31998;48.798;15.066;2022-09-03T07:31:15;3.33;;;3.17;;
46266;SDS011;31998;48.798;15.066;2022-09-03T07:33:43;10.90;;;3.03;;
46266;SDS011;31998;48.798;15.066;2022-09-03T07:36:15;4.80;;;3.03;;
46266;SDS011;31998;48.798;15.066;2022-09-03T07:38:42;2.50;;;2.40;;
46266;SDS011;31998;48.798;15.066;2022-09-03T07:41:12;2.97;;;2.73;;
46266;SDS011;31998;48.798;15.066;2022-09-03T07:43:40;2.80;;;2.60;;
46266;SDS011;31998;48.798;15.066;2022-09-03T07:46:17;5.53;;;2.93;;
46266;SDS011;31998;48.798;15.066;2022-09-03T07:48:57;6.63;;;2.40;;
46266;SDS011;31998;48.798;15.066;2022-09-03T07:51:24;3.60;;;3.40;;
46266;SDS011;31998;48.798;15.066;2022-09-03T07:53:56;3.53;;;3.20;;
46266;SDS011;31998;48.798;15.066;2022-09-03T07:56:23;3.57;;;2.50;;
46266;SDS011;31998;48.798;15.066;2022-09-03T07:58:49;3.63;;;3.43;;
46266;SDS011;31998;48.798;15.066;2022-09-03T08:01:19;2.93;;;2.57;;
46266;SDS011;31998;48.798;15.066;2022-09-03T08:03:48;4.23;;;3.10;;
46266;SDS011;31998;48.798;15.066;2022-09-03T08:06:15;2.60;;;2.50;;
46266;SDS011;31998;48.798;15.066;2022-09-03T08:08:42;3.07;;;2.87;;
46266;SDS011;31998;48.798;15.066;2022-09-03T08:11:10;2.80;;;2.60;;
46266;SDS011;31998;48.798;15.066;2022-09-03T08:13:40;3.40;;;3.20;;
46266;SDS011;31998;48.798;15.066;2022-09-03T08:16:08;7.33;;;3.27;;
46266;SDS011;31998;48.798;15.066;2022-09-03T08:18:38;3.63;;;2.90;;
46266;SDS011;31998;48.798;15.066;2022-09-03T08:21:07;2.60;;;2.50;;
46266;SDS011;31998;48.798;15.066;2022-09-03T08:23:36;4.23;;;2.20;;
46266;SDS011;31998;48.798;15.066;2022-09-03T08:26:03;3.23;;;3.03;;
46266;SDS011;31998;48.798;15.066;2022-09-03T08:28:29;6.00;;;2.37;;
46266;SDS011;31998;48.798;15.066;2022-09-03T08:30:55;2.80;;;2.70;;
46266;SDS011;31998;48.798;15.066;2022-09-03T08:33:21;2.77;;;2.67;;
46266;SDS011;31998;48.798;15.066;2022-09-03T08:36:46;2.90;;;2.80;;
46266;SDS011;31998;48.798;15.066;2022-09-03T08:38:48;4.17;;;2.63;;
46266;SDS011;31998;48.798;15.066;2022-09-03T08:46:31;2.90;;;2.53;;
46266;SDS011;31998;48.798;15.066;2022-09-03T08:49:05;2.60;;;2.37;;
46266;SDS011;31998;48.798;15.066;2022-09-03T08:51:34;2.70;;;2.27;;
46266;SDS011;31998;48.798;15.066;2022-09-03T08:54:03;2.90;;;2.70;;
46266;SDS011;31998;48.798;15.066;2022-09-03T08:56:32;2.80;;;2.60;;
46266;SDS011;31998;48.798;15.066;2022-09-03T08:59:03;3.00;;;2.73;;
46266;SDS011;31998;48.798;15.066;2022-09-03T09:14:54;2.80;;;2.70;;
46266;SDS011;31998;48.798;15.066;2022-09-03T09:20:33;2.40;;;2.30;;
46266;SDS011;31998;48.798;15.066;2022-09-03T09:23:06;5.40;;;2.23;;
46266;SDS011;31998;48.798;15.066;2022-09-03T09:25:38;2.67;;;2.47;;
46266;SDS011;31998;48.798;15.066;2022-09-03T09:30:50;2.70;;;2.60;;
46266;SDS011;31998;48.798;15.066;2022-09-03T09:33:19;2.80;;;2.53;;
46266;SDS011;31998;48.798;15.066;2022-09-03T09:35:45;4.30;;;2.30;;
46266;SDS011;31998;48.798;15.066;2022-09-03T09:38:11;2.40;;;2.20;;
46266;SDS011;31998;48.798;15.066;2022-09-03T09:40:39;3.33;;;2.60;;
46266;SDS011;31998;48.798;15.066;2022-09-03T09:43:17;3.40;;;2.43;;
46266;SDS011;31998;48.798;15.066;2022-09-03T09:45:46;2.90;;;2.70;;
46266;SDS011;31998;48.798;15.066;2022-09-03T09:51:08;3.47;;;2.73;;
46266;SDS011;31998;48.798;15.066;2022-09-03T09:53:35;4.90;;;2.33;;
46266;SDS011;31998;48.798;15.066;2022-09-03T09:56:01;2.80;;;2.60;;
46266;SDS011;31998;48.798;15.066;2022-09-03T09:58:28;2.10;;;1.90;;
46266;SDS011;31998;48.798;15.066;2022-09-03T10:01:01;2.67;;;2.47;;
46266;SDS011;31998;48.798;15.066;2022-09-03T10:03:39;7.30;;;2.50;;
46266;SDS011;31998;48.798;15.066;2022-09-03T10:06:21;2.70;;;2.30;;
46266;SDS011;31998;48.798;15.066;2022-09-03T10:11:32;2.37;;;2.27;;
46266;SDS011;31998;48.798;15.066;2022-09-03T10:14:01;4.93;;;2.47;;
46266;SDS011;31998;48.798;15.066;2022-09-03T10:16:30;2.27;;;2.17;;
46266;SDS011;31998;48.798;15.066;2022-09-03T10:19:04;2.67;;;2.47;;
46266;SDS011;31998;48.798;15.066;2022-09-03T10:21:57;12.23;;;3.20;;
46266;SDS011;31998;48.798;15.066;2022-09-03T10:27:20;6.57;;;2.73;;
46266;SDS011;31998;48.798;15.066;2022-09-03T10:29:48;5.43;;;2.70;;
46266;SDS011;31998;48.798;15.066;2022-09-03T10:32:29;3.73;;;2.20;;
46266;SDS011;31998;48.798;15.066;2022-09-03T10:46:25;2.50;;;2.07;;
46266;SDS011;31998;48.798;15.066;2022-09-03T10:51:41;2.67;;;2.10;;
46266;SDS011;31998;48.798;15.066;2022-09-03T10:54:15;1.80;;;1.80;;
46266;SDS011;31998;48.798;15.066;2022-09-03T10:57:16;1.40;;;1.40;;
46266;SDS011;31998;48.798;15.066;2022-09-03T11:05:26;3.00;;;1.83;;
46266;SDS011;31998;48.798;15.066;2022-09-03T11:08:02;1.93;;;1.83;;
46266;SDS011;31998;48.798;15.066;2022-09-03T11:10:36;4.10;;;2.03;;
46266;SDS011;31998;48.798;15.066;2022-09-03T11:13:08;2.27;;;2.17;;
46266;SDS011;31998;48.798;15.066;2022-09-03T11:15:40;2.07;;;1.93;;
46266;SDS011;31998;48.798;15.066;2022-09-03T11:18:30;1.60;;;1.60;;
46266;SDS011;31998;48.798;15.066;2022-09-03T11:21:05;2.10;;;1.80;;
46266;SDS011;31998;48.798;15.066;2022-09-03T11:23:36;5.13;;;1.70;;
46266;SDS011;31998;48.798;15.066;2022-09-03T11:26:12;5.70;;;1.80;;
46266;SDS011;31998;48.798;15.066;2022-09-03T11:29:03;2.03;;;1.60;;
46266;SDS011;31998;48.798;15.066;2022-09-03T11:34:24;2.10;;;1.60;;
46266;SDS011;31998;48.798;15.066;2022-09-03T11:37:05;4.20;;;2.03;;
46266;SDS011;31998;48.798;15.066;2022-09-03T11:39:41;1.77;;;1.70;;
46266;SDS011;31998;48.798;15.066;2022-09-03T11:42:11;1.70;;;1.53;;
46266;SDS011;31998;48.798;15.066;2022-09-03T11:44:44;2.17;;;2.07;;
46266;SDS011;31998;48.798;15.066;2022-09-03T11:47:23;1.90;;;1.73;;
46266;SDS011;31998;48.798;15.066;2022-09-03T11:50:06;2.47;;;2.37;;
46266;SDS011;31998;48.798;15.066;2022-09-03T11:52:48;1.80;;;1.70;;
46266;SDS011;31998;48.798;15.066;2022-09-03T11:55:29;1.47;;;1.47;;
46266;SDS011;31998;48.798;15.066;2022-09-03T11:57:58;1.80;;;1.80;;
46266;SDS011;31998;48.798;15.066;2022-09-03T12:00:36;1.67;;;1.57;;
46266;SDS011;31998;48.798;15.066;2022-09-03T12:03:03;1.87;;;1.77;;
46266;SDS011;31998;48.798;15.066;2022-09-03T12:05:45;4.20;;;1.60;;
46266;SDS011;31998;48.798;15.066;2022-09-03T12:11:23;1.30;;;1.30;;
46266;SDS011;31998;48.798;15.066;2022-09-03T12:14:18;3.43;;;1.83;;
46266;SDS011;31998;48.798;15.066;2022-09-03T12:19:50;2.03;;;1.93;;
46266;SDS011;31998;48.798;15.066;2022-09-03T12:22:19;1.80;;;1.70;;
46266;SDS011;31998;48.798;15.066;2022-09-03T12:24:46;2.17;;;2.10;;
46266;SDS011;31998;48.798;15.066;2022-09-03T12:27:19;1.47;;;1.40;;
46266;SDS011;31998;48.798;15.066;2022-09-03T12:30:34;2.73;;;1.70;;
46266;SDS011;31998;48.798;15.066;2022-09-03T12:32:46;1.97;;;1.77;;
46266;SDS011;31998;48.798;15.066;2022-09-03T12:35:13;1.47;;;1.37;;
46266;SDS011;31998;48.798;15.066;2022-09-03T12:37:50;2.07;;;1.90;;
46266;SDS011;31998;48.798;15.066;2022-09-03T12:40:23;1.83;;;1.73;;
46266;SDS011;31998;48.798;15.066;2022-09-03T12:42:50;4.00;;;2.20;;
46266;SDS011;31998;48.798;15.066;2022-09-03T12:45:21;2.50;;;1.60;;
46266;SDS011;31998;48.798;15.066;2022-09-03T12:47:48;4.57;;;2.13;;
46266;SDS011;31998;48.798;15.066;2022-09-03T12:50:19;2.50;;;1.70;;
46266;SDS011;31998;48.798;15.066;2022-09-03T12:52:53;1.60;;;1.53;;
46266;SDS011;31998;48.798;15.066;2022-09-03T12:55:34;2.50;;;1.50;;
46266;SDS011;31998;48.798;15.066;2022-09-03T13:00:32;1.60;;;1.60;;
46266;SDS011;31998;48.798;15.066;2022-09-03T13:03:21;1.80;;;1.70;;
46266;SDS011;31998;48.798;15.066;2022-09-03T13:05:50;2.00;;;1.90;;
46266;SDS011;31998;48.798;15.066;2022-09-03T13:08:23;1.80;;;1.57;;
46266;SDS011;31998;48.798;15.066;2022-09-03T13:10:54;2.50;;;1.60;;
46266;SDS011;31998;48.798;15.066;2022-09-03T13:13:26;5.97;;;2.37;;
46266;SDS011;31998;48.798;15.066;2022-09-03T13:21:17;1.70;;;1.60;;
46266;SDS011;31998;48.798;15.066;2022-09-03T13:26:34;4.30;;;1.90;;
46266;SDS011;31998;48.798;15.066;2022-09-03T13:31:49;2.00;;;1.90;;
46266;SDS011;31998;48.798;15.066;2022-09-03T13:34:21;1.87;;;1.77;;
46266;SDS011;31998;48.798;15.066;2022-09-03T13:39:54;2.00;;;2.00;;
46266;SDS011;31998;48.798;15.066;2022-09-03T13:42:47;1.83;;;1.77;;
46266;SDS011;31998;48.798;15.066;2022-09-03T13:45:27;6.00;;;2.03;;
46266;SDS011;31998;48.798;15.066;2022-09-03T13:47:58;2.90;;;1.97;;
46266;SDS011;31998;48.798;15.066;2022-09-03T13:50:50;2.17;;;2.07;;
46266;SDS011;31998;48.798;15.066;2022-09-03T13:53:31;4.10;;;1.93;;
46266;SDS011;31998;48.798;15.066;2022-09-03T13:56:12;2.50;;;2.40;;
46266;SDS011;31998;48.798;15.066;2022-09-03T13:59:05;2.53;;;1.77;;
46266;SDS011;31998;48.798;15.066;2022-09-03T14:02:21;1.83;;;1.73;;
46266;SDS011;31998;48.798;15.066;2022-09-03T14:07:25;8.40;;;2.20;;
46266;SDS011;31998;48.798;15.066;2022-09-03T14:10:05;2.83;;;2.63;;
46266;SDS011;31998;48.798;15.066;2022-09-03T14:12:43;2.70;;;1.80;;
46266;SDS011;31998;48.798;15.066;2022-09-03T14:18:11;2.70;;;1.63;;
46266;SDS011;31998;48.798;15.066;2022-09-03T14:20:43;1.93;;;1.83;;
46266;SDS011;31998;48.798;15.066;2022-09-03T14:25:54;1.60;;;1.60;;
46266;SDS011;31998;48.798;15.066;2022-09-03T14:31:23;1.87;;;1.67;;
46266;SDS011;31998;48.798;15.066;2022-09-03T14:36:58;3.27;;;1.63;;
46266;SDS011;31998;48.798;15.066;2022-09-03T15:12:52;10.90;;;2.67;;
46266;SDS011;31998;48.798;15.066;2022-09-03T15:15:41;2.17;;;1.90;;
46266;SDS011;31998;48.798;15.066;2022-09-03T15:18:29;3.00;;;1.70;;
46266;SDS011;31998;48.798;15.066;2022-09-03T15:23:51;1.77;;;1.60;;
46266;SDS011;31998;48.798;15.066;2022-09-03T15:29:37;7.33;;;1.63;;
46266;SDS011;31998;48.798;15.066;2022-09-03T15:35:01;2.00;;;1.70;;
46266;SDS011;31998;48.798;15.066;2022-09-03T15:37:54;2.03;;;1.80;;
46266;SDS011;31998;48.798;15.066;2022-09-03T15:43:02;2.27;;;2.20;;
46266;SDS011;31998;48.798;15.066;2022-09-03T15:45:38;4.00;;;1.97;;
46266;SDS011;31998;48.798;15.066;2022-09-03T15:48:29;3.23;;;1.77;;
46266;SDS011;31998;48.798;15.066;2022-09-03T15:51:17;2.30;;;2.20;;
46266;SDS011;31998;48.798;15.066;2022-09-03T15:53:59;3.13;;;1.50;;
46266;SDS011;31998;48.798;15.066;2022-09-03T15:56:47;5.53;;;1.90;;
46266;SDS011;31998;48.798;15.066;2022-09-03T16:02:05;3.00;;;2.33;;
46266;SDS011;31998;48.798;15.066;2022-09-03T16:04:58;2.07;;;1.77;;
46266;SDS011;31998;48.798;15.066;2022-09-03T16:07:53;1.63;;;1.53;;
46266;SDS011;31998;48.798;15.066;2022-09-03T16:16:32;6.73;;;2.10;;
46266;SDS011;31998;48.798;15.066;2022-09-03T16:21:44;1.73;;;1.63;;
46266;SDS011;31998;48.798;15.066;2022-09-03T16:24:21;2.80;;;2.60;;
46266;SDS011;31998;48.798;15.066;2022-09-03T16:27:02;2.40;;;2.30;;
46266;SDS011;31998;48.798;15.066;2022-09-03T16:29:34;1.83;;;1.73;;
46266;SDS011;31998;48.798;15.066;2022-09-03T16:40:21;2.30;;;2.20;;
46266;SDS011;31998;48.798;15.066;2022-09-03T16:45:58;12.83;;;2.47;;
46266;SDS011;31998;48.798;15.066;2022-09-03T16:48:49;2.73;;;2.20;;
46266;SDS011;31998;48.798;15.066;2022-09-03T16:54:49;2.07;;;1.97;;
46266;SDS011;31998;48.798;15.066;2022-09-03T17:00:19;2.57;;;2.33;;
46266;SDS011;31998;48.798;15.066;2022-09-03T17:05:38;4.70;;;3.00;;
46266;SDS011;31998;48.798;15.066;2022-09-03T17:19:18;3.17;;;2.80;;
46266;SDS011;31998;48.798;15.066;2022-09-03T17:24:46;5.97;;;2.83;;
46266;SDS011;31998;48.798;15.066;2022-09-03T17:30:03;3.17;;;2.60;;
46266;SDS011;31998;48.798;15.066;2022-09-03T17:32:47;4.80;;;3.47;;
46266;SDS011;31998;48.798;15.066;2022-09-03T17:38:21;2.07;;;1.90;;
46266;SDS011;31998;48.798;15.066;2022-09-03T17:49:20;4.27;;;2.90;;
46266;SDS011;31998;48.798;15.066;2022-09-03T17:51:49;2.27;;;2.17;;
46266;SDS011;31998;48.798;15.066;2022-09-03T18:02:44;2.30;;;2.20;;
46266;SDS011;31998;48.798;15.066;2022-09-03T18:18:51;2.30;;;2.10;;
46266;SDS011;31998;48.798;15.066;2022-09-03T18:21:21;2.67;;;2.57;;
46266;SDS011;31998;48.798;15.066;2022-09-03T18:27:17;6.07;;;2.10;;
46266;SDS011;31998;48.798;15.066;2022-09-03T18:30:06;2.30;;;2.23;;
46266;SDS011;31998;48.798;15.066;2022-09-03T18:32:52;2.80;;;2.70;;
46266;SDS011;31998;48.798;15.066;2022-09-03T18:35:36;3.40;;;2.27;;
46266;SDS011;31998;48.798;15.066;2022-09-03T18:38:25;3.67;;;3.37;;
46266;SDS011;31998;48.798;15.066;2022-09-03T18:50:37;3.03;;;2.93;;
46266;SDS011;31998;48.798;15.066;2022-09-03T18:56:48;3.20;;;2.20;;
46266;SDS011;31998;48.798;15.066;2022-09-03T18:59:53;4.57;;;2.27;;
46266;SDS011;31998;48.798;15.066;2022-09-03T19:05:58;3.83;;;2.70;;
46266;SDS011;31998;48.798;15.066;2022-09-03T19:09:06;4.00;;;3.40;;
46266;SDS011;31998;48.798;15.066;2022-09-03T19:15:23;3.17;;;2.80;;
46266;SDS011;31998;48.798;15.066;2022-09-03T19:24:29;2.70;;;2.60;;
46266;SDS011;31998;48.798;15.066;2022-09-03T19:27:16;5.00;;;2.80;;
46266;SDS011;31998;48.798;15.066;2022-09-03T19:30:05;2.73;;;2.53;;
46266;SDS011;31998;48.798;15.066;2022-09-03T19:33:09;3.20;;;3.07;;
46266;SDS011;31998;48.798;15.066;2022-09-03T19:36:15;4.17;;;3.40;;
46266;SDS011;31998;48.798;15.066;2022-09-03T19:42:42;6.57;;;5.60;;
46266;SDS011;31998;48.798;15.066;2022-09-03T19:52:05;3.33;;;3.07;;
46266;SDS011;31998;48.798;15.066;2022-09-03T19:54:56;3.57;;;3.33;;
46266;SDS011;31998;48.798;15.066;2022-09-03T19:57:42;3.33;;;3.07;;
46266;SDS011;31998;48.798;15.066;2022-09-03T20:00:28;3.90;;;3.47;;
46266;SDS011;31998;48.798;15.066;2022-09-03T20:03:14;3.93;;;3.50;;
46266;SDS011;31998;48.798;15.066;2022-09-03T20:05:58;5.00;;;3.97;;
46266;SDS011;31998;48.798;15.066;2022-09-03T20:08:46;4.23;;;3.80;;
46266;SDS011;31998;48.798;15.066;2022-09-03T20:11:31;5.00;;;4.33;;
46266;SDS011;31998;48.798;15.066;2022-09-03T20:13:58;4.53;;;4.33;;
46266;SDS011;31998;48.798;15.066;2022-09-03T20:17:00;3.77;;;3.67;;
46266;SDS011;31998;48.798;15.066;2022-09-03T20:30:33;4.63;;;4.23;;
46266;SDS011;31998;48.798;15.066;2022-09-03T20:52:15;6.87;;;6.47;;